Time,TemperatureF,DewpointF,PressureIn,WindDirection,WindDirectionDegrees,WindSpeedMPH,WindSpeedGustMPH,Humidity,HourlyPrecipIn,Conditions,Clouds,dailyrainin,SoftwareType,DateUTC
2013-07-14 00:04:00,86.3,45.0,29.66,SSE,148,5.0,13.0,24,0.00,,,0.00,weatherlink.com 1.10,2013-07-14 06:04:00,
2013-07-14 00:19:00,85.6,46.0,29.66,ESE,114,9.0,21.0,25,0.00,,,0.00,weatherlink.com 1.10,2013-07-14 06:19:00,
2013-07-14 00:34:00,85.1,47.0,29.66,SE,132,8.0,19.0,26,0.00,,,0.00,weatherlink.com 1.10,2013-07-14 06:34:00,
2013-07-14 00:49:00,84.8,46.0,29.66,East,98,3.0,18.0,26,0.00,,,0.00,weatherlink.com 1.10,2013-07-14 06:49:00,
2013-07-14 01:04:00,84.7,46.0,29.66,East,95,13.0,20.0,26,0.00,,,0.00,weatherlink.com 1.10,2013-07-14 07:04:00,
2013-07-14 01:19:00,84.2,47.0,29.66,ENE,59,11.0,21.0,27,0.00,,,0.00,weatherlink.com 1.10,2013-07-14 07:19:00,
2013-07-14 01:34:00,83.7,46.0,29.65,ENE,75,7.0,20.0,27,0.00,,,0.00,weatherlink.com 1.10,2013-07-14 07:34:00,
2013-07-14 01:49:00,83.3,47.0,29.64,ESE,105,20.0,22.0,28,0.00,,,0.00,weatherlink.com 1.10,2013-07-14 07:49:00,
2013-07-14 02:04:00,83.2,47.0,29.64,SE,131,17.0,26.0,28,0.00,,,0.00,weatherlink.com 1.10,2013-07-14 08:04:00,
2013-07-14 02:19:00,82.9,47.0,29.64,East,101,21.0,25.0,28,0.00,,,0.00,weatherlink.com 1.10,2013-07-14 08:19:00,
2013-07-14 02:34:00,82.8,46.0,29.64,SE,136,18.0,25.0,28,0.00,,,0.00,weatherlink.com 1.10,2013-07-14 08:34:00,
2013-07-14 02:49:00,82.4,47.0,29.64,ESE,117,14.0,25.0,29,0.00,,,0.00,weatherlink.com 1.10,2013-07-14 08:49:00,
2013-07-14 03:04:00,82.1,47.0,29.65,ESE,117,15.0,26.0,29,0.00,,,0.00,weatherlink.com 1.10,2013-07-14 09:04:00,
2013-07-14 03:20:00,81.3,47.0,29.65,ESE,105,19.0,25.0,30,0.00,,,0.00,weatherlink.com 1.10,2013-07-14 09:20:00,
2013-07-14 03:34:00,80.9,48.0,29.66,SE,124,11.0,16.0,31,0.00,,,0.00,weatherlink.com 1.10,2013-07-14 09:34:00,
2013-07-14 03:49:00,80.3,52.0,29.67,SSW,208,5.0,12.0,38,0.00,,,0.00,weatherlink.com 1.10,2013-07-14 09:49:00,
2013-07-14 04:04:00,77.4,56.0,29.67,SSW,212,7.0,10.0,47,0.00,,,0.00,weatherlink.com 1.10,2013-07-14 10:04:00,
2013-07-14 04:19:00,76.3,56.0,29.67,SSE,158,2.0,4.0,50,0.00,,,0.00,weatherlink.com 1.10,2013-07-14 10:19:00,
2013-07-14 04:34:00,75.5,57.0,29.66,SSW,210,2.0,6.0,52,0.00,,,0.00,weatherlink.com 1.10,2013-07-14 10:34:00,
2013-07-14 04:50:00,74.9,57.0,29.66,ENE,72,1.0,2.0,54,0.00,,,0.00,weatherlink.com 1.10,2013-07-14 10:50:00,
2013-07-14 05:05:00,74.8,57.0,29.66,ENE,72,0.0,1.0,54,0.00,,,0.00,weatherlink.com 1.10,2013-07-14 11:05:00,
2013-07-14 05:20:00,74.1,57.0,29.66,SSE,158,0.0,0.0,55,0.00,,,0.00,weatherlink.com 1.10,2013-07-14 11:20:00,
2013-07-14 05:35:00,74.3,56.0,29.66,East,91,0.0,2.0,54,0.00,,,0.00,weatherlink.com 1.10,2013-07-14 11:35:00,
2013-07-14 05:50:00,74.6,56.0,29.67,East,92,0.0,0.0,52,0.00,,,0.00,weatherlink.com 1.10,2013-07-14 11:50:00,
2013-07-14 06:05:00,74.1,57.0,29.67,SSW,195,2.0,4.0,56,0.00,,,0.00,weatherlink.com 1.10,2013-07-14 12:05:00,
2013-07-14 06:20:00,73.7,57.0,29.67,SSE,158,2.0,3.0,57,0.00,,,0.00,weatherlink.com 1.10,2013-07-14 12:20:00,
2013-07-14 06:35:00,73.5,58.0,29.67,SW,216,2.0,5.0,58,0.00,,,0.00,weatherlink.com 1.10,2013-07-14 12:35:00,
2013-07-14 06:50:00,73.4,58.0,29.66,South,183,3.0,7.0,58,0.00,,,0.00,weatherlink.com 1.10,2013-07-14 12:50:00,
2013-07-14 07:05:00,73.4,58.0,29.67,SSW,204,3.0,10.0,58,0.00,,,0.00,weatherlink.com 1.10,2013-07-14 13:05:00,
2013-07-14 07:20:00,73.8,58.0,29.67,SW,231,2.0,4.0,58,0.00,,,0.00,weatherlink.com 1.10,2013-07-14 13:20:00,
2013-07-14 07:35:00,75.8,58.0,29.68,South,183,0.0,3.0,55,0.00,,,0.00,weatherlink.com 1.10,2013-07-14 13:35:00,
2013-07-14 07:50:00,77.5,58.0,29.67,SW,221,4.0,4.0,51,0.00,,,0.00,weatherlink.com 1.10,2013-07-14 13:50:00,
2013-07-14 08:05:00,78.2,56.0,29.67,SSE,163,3.0,6.0,47,0.00,,,0.00,weatherlink.com 1.10,2013-07-14 14:05:00,
2013-07-14 08:20:00,80.8,55.0,29.68,SSE,163,7.0,10.0,41,0.00,,,0.00,weatherlink.com 1.10,2013-07-14 14:20:00,
2013-07-14 08:36:00,80.8,57.0,29.68,SSW,193,3.0,9.0,44,0.00,,,0.00,weatherlink.com 1.10,2013-07-14 14:36:00,
2013-07-14 08:50:00,81.5,56.0,29.67,ENE,75,9.0,13.0,41,0.00,,,0.00,weatherlink.com 1.10,2013-07-14 14:50:00,
2013-07-14 09:05:00,81.5,56.0,29.67,ESE,110,12.0,15.0,41,0.00,,,0.00,weatherlink.com 1.10,2013-07-14 15:05:00,
2013-07-14 09:20:00,81.7,56.0,29.67,ENE,74,15.0,16.0,42,0.00,,,0.00,weatherlink.com 1.10,2013-07-14 15:20:00,
2013-07-14 09:35:00,81.9,57.0,29.66,ESE,111,11.0,17.0,42,0.00,,,0.00,weatherlink.com 1.10,2013-07-14 15:35:00,
2013-07-14 09:50:00,82.1,56.0,29.66,East,100,10.0,17.0,41,0.00,,,0.00,weatherlink.com 1.10,2013-07-14 15:50:00,
2013-07-14 10:05:00,82.3,56.0,29.66,East,84,13.0,19.0,41,0.00,,,0.00,weatherlink.com 1.10,2013-07-14 16:05:00,
2013-07-14 10:20:00,83.1,56.0,29.66,East,79,14.0,17.0,39,0.00,,,0.00,weatherlink.com 1.10,2013-07-14 16:20:00,
2013-07-14 10:35:00,83.3,56.0,29.66,East,92,7.0,17.0,39,0.00,,,0.00,weatherlink.com 1.10,2013-07-14 16:35:00,
2013-07-14 10:50:00,84.5,55.0,29.65,East,84,7.0,13.0,37,0.00,,,0.00,weatherlink.com 1.10,2013-07-14 16:50:00,
2013-07-14 11:05:00,87.2,57.0,29.65,SSE,153,5.0,10.0,36,0.00,,,0.00,weatherlink.com 1.10,2013-07-14 17:05:00,
2013-07-14 11:20:00,86.5,57.0,29.65,ESE,122,4.0,15.0,36,0.00,,,0.00,weatherlink.com 1.10,2013-07-14 17:20:00,
2013-07-14 11:35:00,88.8,55.0,29.65,ESE,120,4.0,11.0,32,0.00,,,0.00,weatherlink.com 1.10,2013-07-14 17:35:00,
2013-07-14 11:50:00,89.8,55.0,29.65,SSE,162,4.0,10.0,31,0.00,,,0.00,weatherlink.com 1.10,2013-07-14 17:50:00,
2013-07-14 12:05:00,89.7,55.0,29.64,SE,143,6.0,12.0,31,0.00,,,0.00,weatherlink.com 1.10,2013-07-14 18:05:00,
2013-07-14 12:20:00,90.5,55.0,29.64,SSW,211,4.0,12.0,30,0.00,,,0.00,weatherlink.com 1.10,2013-07-14 18:20:00,
2013-07-14 12:35:00,90.9,55.0,29.64,SSW,204,4.0,14.0,30,0.00,,,0.00,weatherlink.com 1.10,2013-07-14 18:35:00,
2013-07-14 12:50:00,91.8,55.0,29.63,SE,141,6.0,11.0,29,0.00,,,0.00,weatherlink.com 1.10,2013-07-14 18:50:00,
2013-07-14 13:05:00,91.0,55.0,29.63,ESE,110,4.0,10.0,29,0.00,,,0.00,weatherlink.com 1.10,2013-07-14 19:05:00,
2013-07-14 13:20:00,91.7,55.0,29.62,SSE,148,3.0,10.0,29,0.00,,,0.00,weatherlink.com 1.10,2013-07-14 19:20:00,
2013-07-14 13:35:00,92.0,55.0,29.61,West,277,3.0,12.0,28,0.00,,,0.00,weatherlink.com 1.10,2013-07-14 19:35:00,
2013-07-14 13:50:00,93.1,54.0,29.61,West,262,4.0,9.0,27,0.00,,,0.00,weatherlink.com 1.10,2013-07-14 19:50:00,
2013-07-14 14:05:00,93.3,54.0,29.60,SW,219,2.0,10.0,26,0.00,,,0.00,weatherlink.com 1.10,2013-07-14 20:05:00,
2013-07-14 14:20:00,93.5,53.0,29.59,West,267,6.0,6.0,25,0.00,,,0.00,weatherlink.com 1.10,2013-07-14 20:20:00,
2013-07-14 14:35:00,93.6,53.0,29.58,SSW,204,3.0,6.0,25,0.00,,,0.00,weatherlink.com 1.10,2013-07-14 20:35:00,
2013-07-14 14:50:00,95.1,53.0,29.57,East,99,4.0,10.0,24,0.00,,,0.00,weatherlink.com 1.10,2013-07-14 20:50:00,
2013-07-14 15:05:00,94.2,52.0,29.56,SW,214,1.0,6.0,24,0.00,,,0.00,weatherlink.com 1.10,2013-07-14 21:05:00,
2013-07-14 15:20:00,94.9,52.0,29.55,SSE,166,7.0,12.0,23,0.00,,,0.00,weatherlink.com 1.10,2013-07-14 21:20:00,
2013-07-14 15:36:00,94.6,51.0,29.55,SSE,165,4.0,11.0,23,0.00,,,0.00,weatherlink.com 1.10,2013-07-14 21:36:00,
2013-07-14 15:51:00,97.0,52.0,29.54,SE,131,3.0,9.0,22,0.00,,,0.00,weatherlink.com 1.10,2013-07-14 21:51:00,
2013-07-14 16:06:00,97.1,51.0,29.53,ESE,117,1.0,7.0,21,0.00,,,0.00,weatherlink.com 1.10,2013-07-14 22:06:00,
2013-07-14 16:21:00,96.5,51.0,29.52,SW,217,4.0,7.0,21,0.00,,,0.00,weatherlink.com 1.10,2013-07-14 22:21:00,
2013-07-14 16:36:00,96.8,51.0,29.52,SSW,210,7.0,12.0,21,0.00,,,0.00,weatherlink.com 1.10,2013-07-14 22:36:00,
2013-07-14 16:51:00,95.1,49.0,29.51,WSW,257,1.0,8.0,21,0.00,,,0.00,weatherlink.com 1.10,2013-07-14 22:51:00,
2013-07-14 17:06:00,95.6,50.0,29.50,West,260,4.0,10.0,21,0.00,,,0.00,weatherlink.com 1.10,2013-07-14 23:06:00,
2013-07-14 17:21:00,96.3,50.0,29.50,West,271,4.0,8.0,21,0.00,,,0.00,weatherlink.com 1.10,2013-07-14 23:21:00,
2013-07-14 17:36:00,96.6,49.0,29.50,WSW,253,7.0,8.0,20,0.00,,,0.00,weatherlink.com 1.10,2013-07-14 23:36:00,
2013-07-14 17:51:00,96.8,48.0,29.50,WSW,241,5.0,9.0,19,0.00,,,0.00,weatherlink.com 1.10,2013-07-14 23:51:00,
2013-07-14 18:06:00,97.0,50.0,29.49,West,274,3.0,6.0,20,0.00,,,0.00,weatherlink.com 1.10,2013-07-15 00:06:00,
2013-07-14 18:21:00,96.4,48.0,29.49,South,186,5.0,11.0,19,0.00,,,0.00,weatherlink.com 1.10,2013-07-15 00:21:00,
2013-07-14 18:36:00,95.7,49.0,29.49,SW,214,2.0,9.0,20,0.00,,,0.00,weatherlink.com 1.10,2013-07-15 00:36:00,
2013-07-14 18:51:00,95.4,48.0,29.49,WSW,243,5.0,10.0,20,0.00,,,0.00,weatherlink.com 1.10,2013-07-15 00:51:00,
2013-07-14 19:07:00,94.6,49.0,29.49,SW,214,4.0,8.0,21,0.00,,,0.00,weatherlink.com 1.10,2013-07-15 01:07:00,
2013-07-14 19:21:00,94.6,49.0,29.49,WNW,287,3.0,6.0,21,0.00,,,0.00,weatherlink.com 1.10,2013-07-15 01:21:00,
2013-07-14 19:36:00,94.6,50.0,29.49,West,276,0.0,4.0,22,0.00,,,0.00,weatherlink.com 1.10,2013-07-15 01:36:00,
2013-07-14 19:51:00,93.6,48.0,29.49,SW,236,0.0,5.0,21,0.00,,,0.00,weatherlink.com 1.10,2013-07-15 01:51:00,
2013-07-14 20:06:00,92.1,49.0,29.49,West,263,0.0,0.0,23,0.00,,,0.00,weatherlink.com 1.10,2013-07-15 02:06:00,
2013-07-14 20:21:00,91.4,49.0,29.49,WSW,255,0.0,0.0,23,0.00,,,0.00,weatherlink.com 1.10,2013-07-15 02:21:00,
2013-07-14 20:36:00,90.2,49.0,29.49,WSW,255,0.0,0.0,24,0.00,,,0.00,weatherlink.com 1.10,2013-07-15 02:36:00,
2013-07-14 20:51:00,88.8,49.0,29.50,WSW,255,0.0,0.0,25,0.00,,,0.00,weatherlink.com 1.10,2013-07-15 02:51:00,
2013-07-14 21:06:00,90.3,49.0,29.50,WSW,239,2.0,3.0,24,0.00,,,0.00,weatherlink.com 1.10,2013-07-15 03:06:00,
2013-07-14 21:21:00,90.0,49.0,29.50,SSW,209,0.0,2.0,24,0.00,,,0.00,weatherlink.com 1.10,2013-07-15 03:21:00,
2013-07-14 21:36:00,90.0,48.0,29.51,SSW,203,0.0,0.0,23,0.00,,,0.00,weatherlink.com 1.10,2013-07-15 03:36:00,
2013-07-14 21:51:00,90.0,49.0,29.51,SSE,167,0.0,0.0,24,0.00,,,0.00,weatherlink.com 1.10,2013-07-15 03:51:00,
2013-07-14 22:06:00,90.2,49.0,29.52,South,174,0.0,0.0,24,0.00,,,0.00,weatherlink.com 1.10,2013-07-15 04:06:00,
2013-07-14 22:21:00,88.5,52.0,29.54,NNW,336,2.0,8.0,29,0.00,,,0.00,weatherlink.com 1.10,2013-07-15 04:21:00,
2013-07-14 22:36:00,86.1,55.0,29.54,WNW,294,4.0,11.0,34,0.00,,,0.00,weatherlink.com 1.10,2013-07-15 04:36:00,
2013-07-14 22:51:00,84.1,53.0,29.53,NW,325,0.0,1.0,34,0.00,,,0.00,weatherlink.com 1.10,2013-07-15 04:51:00,
2013-07-14 23:06:00,83.6,54.0,29.55,West,260,2.0,10.0,36,0.00,,,0.00,weatherlink.com 1.10,2013-07-15 05:06:00,
2013-07-14 23:21:00,82.7,55.0,29.55,WSW,257,2.0,10.0,39,0.00,,,0.00,weatherlink.com 1.10,2013-07-15 05:21:00,
2013-07-14 23:36:00,82.1,55.0,29.56,ENE,66,0.0,4.0,40,0.00,,,0.00,weatherlink.com 1.10,2013-07-15 05:36:00,
2013-07-14 23:51:00,83.7,52.0,29.56,ESE,103,11.0,15.0,34,0.00,,,0.00,weatherlink.com 1.10,2013-07-15 05:51:00,